Terminal Aerodrome Forecast
Issued by NWS

Home | Current Version | Previous Version | Text Only | Print | Product List | Glossary On
Versions: 1 2 3 4 5 6 7 8 9 10 11 12
621
FTUS44 KTSA 271726
TAFFYV
TAF
KFYV 271726Z 2718/2818 21008KT P6SM BKN150 BKN250
     FM280000 VRB05KT P6SM BKN100
     FM280600 33002KT P6SM SCT025 OVC040
      TEMPO 2808/2812 4SM -TSRA BKN040CB
     FM281200 02005KT P6SM BKN020=

USA.gov is the U.S. government's official web portal to all federal, state and local government web resources and services.